SWR89Z EDDH-LSGG
Flight info
| Callsign | SWR89Z |
|---|---|
| Flight time | N/A |
| Altitude | 23000 |
| Route | IDEKO7G/33 IDEKO N850 NATOR/N0444F370 N869 BENOT |
| Aircraft | A320/M-SDE3FGHIRWY/LB1 |
Departure
| Time | 2026-04-24 16:35 |
|---|---|
| Airport | Hamburg Helmut Schmidt Airport (EDDH) |
Arrival
| Time | N/A |
|---|---|
| Airport | Geneva International Airport (LSGG) |
| Time | Latitude | Longitude | Altitude | Speed | Heading |
|---|---|---|---|---|---|
| 2026-04-24 15:43 | 53.63294 | 10.00375 | 51 ft | 0 kts | 87° |
| 2026-04-24 16:24 | 53.63294 | 10.00366 | 51 ft | 2 kts | 87° |
| 2026-04-24 16:25 | 53.63293 | 10.00339 | 51 ft | 2 kts | 88° |
| 2026-04-24 16:25 | 53.63293 | 10.00312 | 51 ft | 2 kts | 89° |
| 2026-04-24 16:25 | 53.63293 | 10.00284 | 51 ft | 2 kts | 92° |
| 2026-04-24 16:26 | 53.63296 | 10.00229 | 49 ft | 2 kts | 102° |
| 2026-04-24 16:26 | 53.63300 | 10.00203 | 45 ft | 2 kts | 113° |
| 2026-04-24 16:26 | 53.63321 | 10.00167 | 46 ft | 1 kts | 176° |
| 2026-04-24 16:27 | 53.63323 | 10.00167 | 46 ft | 0 kts | 178° |
| 2026-04-24 16:31 | 53.63321 | 10.00167 | 46 ft | 2 kts | 178° |
| 2026-04-24 16:31 | 53.63301 | 10.00169 | 47 ft | 4 kts | 175° |
| 2026-04-24 16:31 | 53.63266 | 10.00173 | 51 ft | 6 kts | 183° |
| 2026-04-24 16:31 | 53.63230 | 10.00134 | 49 ft | 7 kts | 225° |
| 2026-04-24 16:32 | 53.63190 | 10.00055 | 51 ft | 10 kts | 231° |
| 2026-04-24 16:32 | 53.63141 | 9.99952 | 50 ft | 12 kts | 232° |
| 2026-04-24 16:32 | 53.63066 | 9.99905 | 50 ft | 11 kts | 165° |
| 2026-04-24 16:32 | 53.63009 | 9.99948 | 51 ft | 8 kts | 152° |
| 2026-04-24 16:33 | 53.62961 | 9.99987 | 51 ft | 7 kts | 159° |
| 2026-04-24 16:33 | 53.62922 | 9.99974 | 48 ft | 5 kts | 216° |
| 2026-04-24 16:33 | 53.62901 | 9.99925 | 51 ft | 6 kts | 240° |
| 2026-04-24 16:33 | 53.62879 | 9.99857 | 51 ft | 7 kts | 241° |
| 2026-04-24 16:34 | 53.62863 | 9.99769 | 51 ft | 8 kts | 284° |
| 2026-04-24 16:34 | 53.62906 | 9.99712 | 51 ft | 1 kts | 335° |
| 2026-04-24 16:34 | 53.62908 | 9.99710 | 51 ft | 0 kts | 335° |
| 2026-04-24 16:34 | 53.62913 | 9.99706 | 51 ft | 5 kts | 334° |
| 2026-04-24 16:35 | 53.63153 | 9.99497 | 50 ft | 75 kts | 332° |
| 2026-04-24 16:35 | 53.63790 | 9.98942 | 47 ft | 132 kts | 333° |
| 2026-04-24 16:35 | 53.64686 | 9.98188 | 454 ft | 146 kts | 330° |
| 2026-04-24 16:35 | 53.65604 | 9.97443 | 1167 ft | 146 kts | 328° |
| 2026-04-24 16:36 | 53.66550 | 9.96630 | 1707 ft | 163 kts | 329° |
| 2026-04-24 16:36 | 53.67628 | 9.95692 | 2093 ft | 185 kts | 330° |
| 2026-04-24 16:36 | 53.68812 | 9.94665 | 2691 ft | 196 kts | 331° |
| 2026-04-24 16:36 | 53.70034 | 9.93611 | 3498 ft | 198 kts | 332° |
| 2026-04-24 16:37 | 53.71124 | 9.92182 | 4207 ft | 205 kts | 305° |
| 2026-04-24 16:37 | 53.71519 | 9.89828 | 4837 ft | 226 kts | 270° |
| 2026-04-24 16:37 | 53.71146 | 9.87073 | 5248 ft | 255 kts | 258° |
| 2026-04-24 16:37 | 53.70574 | 9.84138 | 5898 ft | 269 kts | 256° |
| 2026-04-24 16:38 | 53.69943 | 9.81118 | 6698 ft | 276 kts | 256° |
| 2026-04-24 16:38 | 53.69294 | 9.78038 | 7536 ft | 280 kts | 256° |
| 2026-04-24 16:38 | 53.68645 | 9.74930 | 8425 ft | 282 kts | 256° |
| 2026-04-24 16:38 | 53.68003 | 9.71794 | 9334 ft | 284 kts | 257° |
| 2026-04-24 16:39 | 53.67368 | 9.68626 | 10203 ft | 286 kts | 257° |
| 2026-04-24 16:39 | 53.66733 | 9.65406 | 10847 ft | 297 kts | 257° |
| 2026-04-24 16:39 | 53.65834 | 9.62097 | 11082 ft | 328 kts | 240° |
| 2026-04-24 16:39 | 53.64139 | 9.59317 | 11431 ft | 355 kts | 215° |
| 2026-04-24 16:40 | 53.61780 | 9.57888 | 12092 ft | 368 kts | 192° |
| 2026-04-24 16:40 | 53.59231 | 9.57256 | 12853 ft | 372 kts | 190° |
| 2026-04-24 16:40 | 53.56663 | 9.56677 | 13623 ft | 374 kts | 189° |
| 2026-04-24 16:40 | 53.54070 | 9.56114 | 14341 ft | 377 kts | 189° |
| 2026-04-24 16:41 | 53.51455 | 9.55553 | 14995 ft | 380 kts | 189° |
| 2026-04-24 16:41 | 53.48823 | 9.54979 | 15672 ft | 382 kts | 190° |
| 2026-04-24 16:41 | 53.46180 | 9.54391 | 16344 ft | 385 kts | 190° |
| 2026-04-24 16:41 | 53.43517 | 9.53795 | 17002 ft | 387 kts | 190° |
| 2026-04-24 16:42 | 53.40840 | 9.53195 | 17658 ft | 389 kts | 190° |
| 2026-04-24 16:42 | 53.38147 | 9.52591 | 18314 ft | 392 kts | 191° |
| 2026-04-24 16:42 | 53.35434 | 9.51978 | 18880 ft | 395 kts | 191° |
| 2026-04-24 16:42 | 53.32701 | 9.51362 | 19446 ft | 397 kts | 191° |
| 2026-04-24 16:43 | 53.29954 | 9.50745 | 20013 ft | 400 kts | 191° |
| 2026-04-24 16:43 | 53.27185 | 9.50124 | 20579 ft | 403 kts | 191° |
| 2026-04-24 16:43 | 53.24402 | 9.49505 | 21144 ft | 405 kts | 191° |
| 2026-04-24 16:43 | 53.21598 | 9.48880 | 21697 ft | 408 kts | 191° |
| 2026-04-24 16:44 | 53.18772 | 9.48248 | 22243 ft | 411 kts | 191° |
| 2026-04-24 16:44 | 53.15934 | 9.47618 | 22771 ft | 413 kts | 191° |
| 2026-04-24 16:44 | 53.13073 | 9.46986 | 23104 ft | 416 kts | 191° |
| 2026-04-24 16:44 | 53.10208 | 9.46353 | 23170 ft | 415 kts | 192° |
| 2026-04-24 16:45 | 53.07346 | 9.45720 | 23172 ft | 415 kts | 192° |
| 2026-04-24 16:45 | 53.04484 | 9.45091 | 23170 ft | 415 kts | 191° |
| 2026-04-24 16:45 | 53.01625 | 9.44468 | 23170 ft | 415 kts | 191° |
| 2026-04-24 16:45 | 52.98764 | 9.43846 | 23171 ft | 415 kts | 191° |
| 2026-04-24 16:46 | 52.95902 | 9.43218 | 23171 ft | 415 kts | 192° |
| 2026-04-24 16:46 | 52.93043 | 9.42585 | 23175 ft | 415 kts | 192° |
| 2026-04-24 16:46 | 52.90183 | 9.41950 | 23170 ft | 415 kts | 192° |
| 2026-04-24 16:46 | 52.87326 | 9.41316 | 23157 ft | 415 kts | 191° |
| 2026-04-24 16:47 | 52.84504 | 9.40695 | 23169 ft | 414 kts | 191° |
| 2026-04-24 16:47 | 52.81646 | 9.40068 | 23171 ft | 414 kts | 191° |
| 2026-04-24 16:47 | 52.78791 | 9.39443 | 23171 ft | 414 kts | 191° |
| 2026-04-24 16:47 | 52.75931 | 9.38820 | 23165 ft | 414 kts | 191° |
| 2026-04-24 16:48 | 52.73073 | 9.38200 | 23165 ft | 414 kts | 191° |
| 2026-04-24 16:48 | 52.70216 | 9.37581 | 23166 ft | 414 kts | 191° |
| 2026-04-24 16:48 | 52.67360 | 9.36965 | 23166 ft | 414 kts | 191° |
| 2026-04-24 16:48 | 52.64501 | 9.36354 | 23166 ft | 414 kts | 191° |
| 2026-04-24 16:49 | 52.61645 | 9.35739 | 23161 ft | 414 kts | 191° |
| 2026-04-24 16:49 | 52.58790 | 9.35117 | 23163 ft | 414 kts | 191° |
| 2026-04-24 16:49 | 52.55934 | 9.34492 | 23163 ft | 414 kts | 191° |
| 2026-04-24 16:49 | 52.53083 | 9.33870 | 23164 ft | 414 kts | 191° |
| 2026-04-24 16:50 | 52.51189 | 9.33461 | 23162 ft | 414 kts | 191° |
| 2026-04-24 16:50 | 52.47371 | 9.32642 | 23163 ft | 414 kts | 191° |
| 2026-04-24 16:50 | 52.44517 | 9.32031 | 23163 ft | 414 kts | 191° |
| 2026-04-24 16:50 | 52.41659 | 9.31419 | 23164 ft | 414 kts | 191° |
| 2026-04-24 16:51 | 52.38805 | 9.30807 | 23150 ft | 413 kts | 191° |
| 2026-04-24 16:51 | 52.35958 | 9.30200 | 23165 ft | 413 kts | 191° |
| 2026-04-24 16:51 | 52.33112 | 9.29576 | 23164 ft | 412 kts | 192° |
| 2026-04-24 16:51 | 52.30285 | 9.28880 | 23198 ft | 412 kts | 193° |
| 2026-04-24 16:52 | 52.27443 | 9.28120 | 23713 ft | 415 kts | 193° |
| 2026-04-24 16:52 | 52.24589 | 9.27333 | 24155 ft | 417 kts | 193° |
| 2026-04-24 16:52 | 52.21723 | 9.26577 | 24593 ft | 419 kts | 192° |
| 2026-04-24 16:52 | 52.18821 | 9.25951 | 25026 ft | 421 kts | 191° |
| 2026-04-24 16:53 | 52.15900 | 9.25427 | 25423 ft | 424 kts | 189° |
| 2026-04-24 16:53 | 52.12960 | 9.24950 | 25823 ft | 425 kts | 189° |
| 2026-04-24 16:53 | 52.10010 | 9.24479 | 26213 ft | 427 kts | 189° |
| 2026-04-24 16:53 | 52.07046 | 9.23993 | 26600 ft | 429 kts | 190° |
| 2026-04-24 16:54 | 52.04076 | 9.23461 | 26980 ft | 430 kts | 191° |
| 2026-04-24 16:54 | 52.01113 | 9.22785 | 27358 ft | 431 kts | 193° |
| 2026-04-24 16:54 | 51.98152 | 9.21997 | 27736 ft | 432 kts | 194° |
| 2026-04-24 16:54 | 51.95225 | 9.21167 | 28093 ft | 433 kts | 194° |
| 2026-04-24 16:55 | 51.92249 | 9.20322 | 28437 ft | 435 kts | 194° |
| 2026-04-24 16:55 | 51.89220 | 9.19481 | 28794 ft | 437 kts | 194° |
| 2026-04-24 16:55 | 51.86214 | 9.18692 | 29135 ft | 439 kts | 193° |
| 2026-04-24 16:55 | 51.83221 | 9.17997 | 29453 ft | 441 kts | 192° |
| 2026-04-24 16:56 | 51.80170 | 9.17354 | 29775 ft | 443 kts | 191° |
| 2026-04-24 16:56 | 51.77065 | 9.16730 | 30069 ft | 445 kts | 191° |
| 2026-04-24 16:56 | 51.71046 | 9.15513 | 30169 ft | 431 kts | 192° |
| 2026-04-24 16:57 | 51.65097 | 9.14247 | 30173 ft | 428 kts | 192° |
| 2026-04-24 16:57 | 51.59200 | 9.12959 | 30175 ft | 427 kts | 192° |
| 2026-04-24 16:58 | 51.53319 | 9.11675 | 30174 ft | 420 kts | 192° |
| 2026-04-24 16:58 | 51.50518 | 9.11075 | 30174 ft | 403 kts | 193° |
| 2026-04-24 16:58 | 51.47803 | 9.10354 | 30174 ft | 390 kts | 195° |
| 2026-04-24 16:59 | 51.42560 | 9.08544 | 30178 ft | 383 kts | 198° |
| 2026-04-24 16:59 | 51.37364 | 9.06620 | 30305 ft | 385 kts | 197° |
| 2026-04-24 17:00 | 51.34751 | 9.05693 | 30569 ft | 383 kts | 197° |
| 2026-04-24 17:00 | 51.29552 | 9.03920 | 31050 ft | 381 kts | 197° |
| 2026-04-24 17:00 | 51.26962 | 9.03050 | 31296 ft | 380 kts | 197° |
| 2026-04-24 17:01 | 51.21792 | 9.01322 | 31780 ft | 379 kts | 196° |
| 2026-04-24 17:01 | 51.19210 | 9.00456 | 32038 ft | 379 kts | 197° |
| 2026-04-24 17:02 | 51.14932 | 8.99017 | 32462 ft | 378 kts | 197° |
| 2026-04-24 17:02 | 51.11497 | 8.97859 | 32812 ft | 377 kts | 197° |
| 2026-04-24 17:02 | 51.08928 | 8.97031 | 33079 ft | 377 kts | 195° |
| 2026-04-24 17:02 | 51.06354 | 8.96274 | 33343 ft | 376 kts | 195° |
| 2026-04-24 17:03 | 51.01217 | 8.94780 | 33886 ft | 374 kts | 196° |
| 2026-04-24 17:03 | 50.98672 | 8.93956 | 34157 ft | 373 kts | 197° |
| 2026-04-24 17:03 | 50.96142 | 8.93104 | 34399 ft | 371 kts | 197° |
| 2026-04-24 17:04 | 50.93616 | 8.92241 | 34640 ft | 370 kts | 197° |
| 2026-04-24 17:04 | 50.88587 | 8.90527 | 35127 ft | 369 kts | 197° |
| 2026-04-24 17:04 | 50.86079 | 8.89685 | 35376 ft | 368 kts | 197° |
| 2026-04-24 17:05 | 50.83570 | 8.88850 | 35622 ft | 368 kts | 197° |
| 2026-04-24 17:05 | 50.81066 | 8.88016 | 35870 ft | 368 kts | 197° |
| 2026-04-24 17:05 | 50.76052 | 8.86289 | 36346 ft | 370 kts | 198° |
| 2026-04-24 17:06 | 50.73533 | 8.85411 | 36561 ft | 371 kts | 198° |
| 2026-04-24 17:06 | 50.68474 | 8.83649 | 36963 ft | 374 kts | 198° |
| 2026-04-24 17:06 | 50.65926 | 8.82788 | 37124 ft | 377 kts | 195° |
| 2026-04-24 17:07 | 50.60554 | 8.82546 | 37164 ft | 399 kts | 178° |
| 2026-04-24 17:07 | 50.54954 | 8.83763 | 37167 ft | 412 kts | 178° |
| 2026-04-24 17:08 | 50.50191 | 8.84770 | 37162 ft | 420 kts | 178° |
| 2026-04-24 17:08 | 50.44322 | 8.85991 | 37155 ft | 430 kts | 177° |
| 2026-04-24 17:09 | 50.32283 | 8.88514 | 37155 ft | 439 kts | 177° |
| 2026-04-24 17:10 | 50.20188 | 8.90916 | 37146 ft | 435 kts | 184° |
| 2026-04-24 17:11 | 50.11669 | 8.87703 | 37140 ft | 417 kts | 213° |
| 2026-04-24 17:12 | 49.98896 | 8.77714 | 37123 ft | 425 kts | 196° |